Aeroporto :
LOGIN :

Iscrizione | Disclaimer

   EN    FR    IT 

 










Sommario :    VFR   VFR Marginale   IFR   IFR Intensivo   IFR Molto Intensivo
Visibilità : 
Base nubi : 
>= 8 km
>= 3000ft
5 / 8 km
1000 / 3000 ft
1500m / 5 km
500 / 1000 ft
800 / 1500m
200 / 500 ft
< 800m
< 200 ft
Simboli :   Temporali  Nebbia  Neve Forte  Precipitazioni Forti  Vento > 20 kt
SIGMETs :   Varie  Temporali  Ghiacco  Turbolenza  Onda orograficha  Ceneri Vulcaniche






- Altitudine del aeroporto : 16 ft
- Codice IATA : SDR


LEXJ - Santander Cantabria

ULTIMO METAR :
  • 301900Z 21004KT 160V240 9999 -RA SCT016 FEW021TCU BKN022 06/04 Q1019

METARs OBSOLETI :
  • 301830Z 20006KT 160V230 9999 FEW016 FEW021TCU BKN024 06/04 Q1019
  • 301800Z 30005KT 250V360 9999 FEW016 FEW021TCU BKN022 06/04 Q1019
  • 301730Z 00000KT 9999 FEW020 FEW024TCU BKN025 06/03 Q1019
  • 301700Z 08002KT 9999 SCT020 FEW025TCU BKN030 07/04 Q1019

TAF TAF LEXJ
Valido dal 30 a 15 ore il 31 a 15 ore UTC


301400Z 3015/3115 02009KT 9999 BKN030 TX10/3115Z TN01/3106Z
BECMG 3018/3022 27010KT
TEMPO 3015/3024 SHRAGS SCT025TCU
PROB40
TEMPO 3015/3024 3000 SHRAGR TS SCT030CB
BECMG 3104/3107 09010KT
TEMPO 3112/3115 07015G25KT



MetMap, La meteo Aeronautica in un colpo d'occhio ! - Copyright ORBIFLY Dicembre 2007 - Disclaimer

ORBIFLY MET'MAP TEAM :

Programmazione e sviluppo : Alexandra Zaïnal
Concezione : Baudouin d'Aumeries
Aiuto per la programmazione : Marc-Olivier Méhu
Supporto tecnico e logistico : Manuel Goepfert
Aiuto per la traduzione : Arnaldo La Scala

Contatto : metmap@orbifly.com




FONTI E CREDITI :

   NOAA